Tiempo atmosférico en la estación meteorológica de Aliseda, Cáceres (321 m.)



Fecha
DESCASC
Temp. máxima en grados centígrados (hora)
DESCASC
Temp. mínima en grados centígrados (hora)
DESCASC
Temp. media en grados centígrados
DESCASC
Racha de viento máxima en m/sg (hora)
DESCASC
Velocidad máxima media en intervalos de 10 minutos(hora)
DESCASC
Precipitaciones diarias en mm
DESCASC
Precipitaciones de 00:00 a 06:00 en mm
DESCASC
Precipitaciones de 06:00 a 12:00 en mm
DESCASC
Precipitaciones de 12:00 a 18:00 en mm
DESCASC
Precipitaciones de 18:00 a 24:00 en mm
DESCASC
05-04-2020 19.1 (15:40) 12.8 (08:30) 16 13.06 (14:10) 5.83 (16:50) 3.6 0 0 0 3.6
04-04-2020 18.6 (17:30) 7.7 (06:20) 13.2 11.39 (13:30) 5.83 (15:50) 0 0 0 0 0
03-04-2020 19.6 (17:50) 5.2 (08:20) 12.4 6.39 (18:00) 3.61 (23:40) 0 0 0 0 0
02-04-2020 17.9 (18:20) 6.1 (00:00) 12 6.94 (15:10) 3.33 (18:20) 21.6 21.4 0 0.2 0
01-04-2020 13.3 (16:10) 1.4 (00:00) 7.4 9.17 (17:20) 5 (17:20) 3.2 0 0 0.2 3
31-03-2020 11.9 (17:40) 4.2 (00:00) 8 10.28 (00:50) 5.28 (00:20) 13.4 4.4 7.2 1.8 0
30-03-2020 12.4 (00:00) 5.4 (00:00) 8.9 9.17 (23:50) 5 (23:30) 1.6 0 0 0.6 1
29-03-2020 20 (16:10) 4.1 (00:00) 12 7.22 (17:20) 4.17 (23:00) 0 0 0 0 0
28-03-2020 17.6 (17:00) 2.3 (00:00) 10 8.06 (13:10) 5 (13:10) 0 0 0 0 0
27-03-2020 15.3 (15:00) 3.3 (00:00) 9.3 8.89 (11:40) 4.17 (11:20) 0 0 0 0 0
26-03-2020 20.1 (16:10) 9 (00:00) 14.6 10.28 (17:40) 6.39 (18:10) 0 0 0 0 0
25-03-2020 20.4 (17:10) 8.9 (00:00) 14.6 7.5 (01:40) 4.44 (21:00) 0 0 0 0 0
24-03-2020 17.3 (16:40) 8.6 (00:00) 12.9 11.39 (16:30) 5.28 (11:20) 0 0 0 0 0
23-03-2020 16.9 (16:00) 6.8 (00:00) 11.8 9.17 (16:10) 4.44 (11:20) 0 0 0 0 0
22-03-2020 16.6 (17:40) 6.1 (07:50) 11.4 6.67 (17:40) 3.61 (17:40) 0.2 0 0.2 0 0
21-03-2020 13.6 (15:10) 8.4 (00:00) 11 9.17 (18:10) 5.56 (17:40) 30.6 21.2 5 1.4 3
20-03-2020 13.4 (14:00) 10 (00:00) 11.7 6.11 (14:10) 3.33 (05:40) 31.6 0 6 13.8 11.8
19-03-2020 19.3 (15:30) 8.7 (00:00) 14 10 (04:50) 6.11 (04:50) 0 0 0 0 0
18-03-2020 20.9 (15:20) 11.1 (00:00) 16 9.44 (09:40) 4.72 (09:40) 0 0 0 0 0
17-03-2020 17.9 (16:40) 3.2 (00:00) 10.5 11.94 (13:20) 6.39 (14:20) 0 0 0 0 0
16-03-2020 10.1 (11:20) 4.1 (00:00) 7.1 10.56 (11:20) 6.39 (10:20) 0.6 0 0 0.4 0.2
15-03-2020 21.4 (13:30) 6.8 (00:00) 14.1 13.33 (20:00) 7.22 (15:10) 0 0 0 0 0
14-03-2020 22.7 (17:20) 8.9 (00:00) 15.8 5 (13:10) 2.5 (01:50) 0 0 0 0 0
13-03-2020 21.2 (15:50) 8.8 (07:20) 15 6.67 (07:50) 5 (19:00) 0 0 0 0 0
12-03-2020 25.5 (15:20) 8.8 (00:00) 17.2 6.94 (18:10) 5 (18:10) 0 0 0 0 0
11-03-2020 24.9 (15:00) 6.7 (00:00) 15.8 4.17 (13:20) 1.94 (13:50) 0 0 0 0 0
10-03-2020 25.5 (17:40) 5.5 (00:00) 15.5 4.17 (14:10) 2.5 (20:10) 0 0 0 0 0
09-03-2020 20.7 (17:20) 6.3 (00:00) 13.5 8.33 (16:00) 3.61 (17:40) 0 0 0 0 0
08-03-2020 16.8 (13:30) 1.3 (00:00) 9 5.56 (14:40) 3.61 (14:40) 0 0 0 0 0

Gráficas

Temp. máximas Temp. mínimas Temp. medias Precipitaciones Rachas de viento máximas Velocidades máximas media en intervalos de 10 minutos

Datos horarios

Fecha y hora oficial Temperatura (ºC) Velocidad del viento (km/h) Dirección del viento Racha (km/h) Dirección de racha Precipitación (mm) Presión (hPa) Tendencia (hPa) Humedad (%)
2020-04-06 23:00:00 14.1 10 Sudeste 22 Sudeste 1.6 -- -- 90
2020-04-06 22:00:00 14.2 4 Noroeste 13 Sudoeste 1 -- -- 93
2020-04-06 21:00:00 14.2 4 Sudeste 12 Este 2.8 -- -- 93
2020-04-06 20:00:00 14.7 6 Sudeste 9 Sudeste 1.8 -- -- 91
2020-04-06 19:00:00 15 4 Sur 7 Sur 0.4 -- -- 86
2020-04-06 18:00:00 15.4 2 Este 14 Sudeste 3 -- -- 84
2020-04-06 17:00:00 16.3 4 Sudoeste 13 Oeste 1.2 -- -- 86
2020-04-06 16:00:00 17.2 5 Oeste 18 Sudoeste 0 -- -- 75
2020-04-06 15:00:00 17.2 8 Sudoeste 23 Sur 0 -- -- 71
2020-04-06 14:00:00 16.6 11 Sudoeste 21 Sudoeste 0 -- -- 73
2020-04-06 13:00:00 15.7 10 Sudoeste 20 Sudoeste 0 -- -- 81
2020-04-06 12:00:00 15 9 Sur 16 Sudoeste 0 -- -- 85
2020-04-06 11:00:00 14.1 7 Sudoeste 14 Oeste 0 -- -- 87
2020-04-06 10:00:00 13.4 2 Sur 15 Sudoeste 0 -- -- 88
2020-04-06 09:00:00 12.1 6 Sudeste 14 Sur 0 -- -- 92
2020-04-06 08:00:00 11.6 6 Sudoeste 18 Sur 0 -- -- 92
2020-04-06 07:00:00 11.8 11 Sur 18 Sur 0 -- -- 94
2020-04-06 06:00:00 12 10 Sur 19 Sur 0 -- -- 94
2020-04-06 05:00:00 12.4 11 Sudoeste 24 Sur 0 -- -- 94
2020-04-06 04:00:00 13 15 Sur 26 Sur 0 -- -- 92
2020-04-06 03:00:00 13.4 15 Sur 27 Sur 0 -- -- 92
2020-04-06 02:00:00 13.6 12 Sudoeste 26 Sudoeste 0 -- -- 93
2020-04-06 01:00:00 14.6 9 Sudoeste 19 Sudoeste 0 -- -- 93
2020-04-06 00:00:00 14.9 9 Sudoeste 25 Sudoeste 0 -- -- 93
2020-04-05 23:00:00 15 12 Sur 39 Sur 1 -- -- 91
2020-04-05 22:00:00 15.1 14 Sur 31 Sur 0.4 -- -- 90
2020-04-05 21:00:00 15.2 13 Sur 37 Sur 1.8 -- -- 89
2020-04-05 20:00:00 15.8 21 Sur 41 Sur 0.2 -- -- 86
2020-04-05 19:00:00 15.5 14 Sur 41 Sur 0.2 -- -- 87
2020-04-05 18:00:00 17.8 9 Sudoeste 31 Sudoeste 0 -- -- 72
2020-04-05 17:00:00 18.2 18 Sur 38 Sur 0 -- -- 70
2020-04-05 16:00:00 18.9 18 Sur 44 Sudoeste 0 -- -- 65
2020-04-05 15:00:00 18.9 8 Este 47 Sur 0 -- -- 64
2020-04-05 14:00:00 17.6 15 Sudoeste 38 Este 0 -- -- 65
2020-04-05 13:00:00 18.3 10 Oeste 40 Este 0 -- -- 61
2020-04-05 12:00:00 15.6 12 Sudeste 44 Este 0 -- -- 67
2020-04-05 11:00:00 14.6 8 Este 38 Este 0 -- -- 69
2020-04-05 10:00:00 14.5 16 Este 34 Sudeste 0 -- -- 68
2020-04-05 09:00:00 12.9 10 Sudeste 35 Sudeste 0 -- -- 70
2020-04-05 08:00:00 13 8 Sudeste 28 Este 0 -- -- 70
2020-04-05 07:00:00 13.2 6 Oeste 23 Sur 0 -- -- 68
2020-04-05 06:00:00 13.2 7 Este 30 Este 0 -- -- 69
2020-04-05 05:00:00 13.4 9 Este 24 Este 0 -- -- 71
2020-04-05 04:00:00 13.7 6 Sudeste 30 Sudeste 0 -- -- 71
2020-04-05 03:00:00 13.3 8 Sudeste 21 Sudeste 0 -- -- 72
2020-04-05 02:00:00 13.6 8 Este 22 Este 0 -- -- 72
2020-04-05 01:00:00 14.1 14 Este 35 Este 0 -- -- 69
2020-04-05 00:00:00 14.7 15 Este 27 Nordeste 0 -- -- 66
2020-04-04 23:00:00 15 13 Este 23 Este 0 -- -- 65
2020-04-04 22:00:00 14.4 5 Este 11 Sur 0 -- -- 73
2020-04-04 21:00:00 15 4 Sur 19 Sur 0 -- -- 68
2020-04-04 20:00:00 16.6 8 Sudoeste 19 Sudoeste 0 -- -- 60
2020-04-04 19:00:00 17.2 10 Sudoeste 32 Sur 0 -- -- 53
2020-04-04 18:00:00 18.1 13 Sudoeste 34 Sur 0 -- -- 47
2020-04-04 17:00:00 18 12 Este 34 Este 0 -- -- 50
2020-04-04 16:00:00 17.2 15 Este 33 Sur 0 -- -- 50
2020-04-04 15:00:00 17.3 12 Sudeste 32 Este 0 -- -- 54
2020-04-04 14:00:00 17.2 13 Este 41 Este 0 -- -- 52
2020-04-04 13:00:00 16.9 14 Sudeste 32 Este 0 -- -- 50
2020-04-04 12:00:00 15.8 12 Este 33 Sudeste 0 -- -- 62
2020-04-04 11:00:00 15.8 15 Este 31 Este 0 -- -- 57
2020-04-04 10:00:00 13.8 10 Este 23 Este 0 -- -- 68
2020-04-04 09:00:00 13.2 8 Este 27 Este 0 -- -- 67
2020-04-04 08:00:00 12.4 10 Sudeste 25 Sudeste 0 -- -- 66
2020-04-04 07:00:00 9 5 Este 22 Este 0 -- -- 79
2020-04-04 06:00:00 8 3 Noroeste 19 Sur 0 -- -- 84
2020-04-04 05:00:00 11.9 11 Sudeste 26 Este 0 -- -- 66
2020-04-04 04:00:00 12.7 7 Sudeste 27 Sudeste 0 -- -- 66
2020-04-04 03:00:00 12.5 10 Este 28 Este 0 -- -- 63
2020-04-04 02:00:00 9.9 2 Oeste 18 Sudeste 0 -- -- 79
2020-04-04 01:00:00 13.3 4 Sudeste 23 Sudeste 0 -- -- 67
2020-04-04 00:00:00 15.6 13 Sudeste 21 Sudeste 0 -- -- 51
2020-04-03 23:00:00 15.5 10 Sudeste 18 Sudeste 0 -- -- 50
2020-04-03 22:00:00 15.5 10 Sudeste 15 Sudeste 0 -- -- 56
2020-04-03 21:00:00 16.2 10 Sudeste 13 Sudeste 0 -- -- 55
2020-04-03 20:00:00 18.6 8 Este 19 Este 0 -- -- 50
2020-04-03 19:00:00 18.1 4 Este 16 Nordeste 0 -- -- 56
2020-04-03 18:00:00 19 9 Este 23 Este 0 -- -- 50
2020-04-03 17:00:00 18.4 7 Este 15 Nordeste 0 -- -- 54
2020-04-03 16:00:00 18.1 7 Este 17 Este 0 -- -- 53
2020-04-03 15:00:00 18.3 9 Nordeste 21 Nordeste 0 -- -- 57
2020-04-03 14:00:00 17.4 10 Nordeste 20 Nordeste 0 -- -- 55
2020-04-03 13:00:00 17.2 8 Nordeste 19 Nordeste 0 -- -- 54
2020-04-03 12:00:00 15.3 10 Este 18 Este 0 -- -- 62
2020-04-03 11:00:00 13 6 Nordeste 13 Nordeste 0 -- -- 75
2020-04-03 10:00:00 9.8 3 Norte 5 Nordeste 0 -- -- 88
2020-04-03 09:00:00 7.3 0 Calma 4 Este 0 -- -- 90
2020-04-03 08:00:00 5.5 0 Calma 4 Sur 0 -- -- 92
2020-04-03 07:00:00 6.4 0 Calma 6 Sudoeste 0 -- -- 89
2020-04-03 06:00:00 6.1 2 Sur 8 Sur 0 -- -- 90
2020-04-03 05:00:00 6.8 4 Sudoeste 12 Oeste 0 -- -- 88
2020-04-03 04:00:00 7.8 4 Sudoeste 12 Sudoeste 0 -- -- 84
2020-04-03 03:00:00 8.2 4 Sudoeste 11 Sudoeste 0 -- -- 84
2020-04-03 02:00:00 9.2 2 Sudoeste 13 Oeste 0 -- -- 80
2020-04-03 01:00:00 10.7 5 Oeste 15 Sudoeste 0 -- -- 76
2020-04-03 00:00:00 10.9 3 Este 10 Sur 0 -- -- 75
2020-04-02 23:00:00 12.8 4 Noroeste 16 Oeste 0 -- -- 72
2020-04-02 22:00:00 13.9 11 Sudoeste 17 Sudoeste 0 -- -- 65
2020-04-02 21:00:00 14.5 8 Sudoeste 17 Oeste 0 -- -- 63
2020-04-02 20:00:00 17.4 9 Noroeste 20 Noroeste 0 -- -- 54
2020-04-02 19:00:00 16.9 7 Noroeste 23 Noroeste 0 -- -- 56
2020-04-02 18:00:00 17.6 10 Noroeste 20 Oeste 0 -- -- 55
2020-04-02 17:00:00 17.4 8 Noroeste 22 Noroeste 0 -- -- 51
2020-04-02 16:00:00 16 7 Noroeste 25 Noroeste 0 -- -- 60
2020-04-02 15:00:00 16.1 6 Noroeste 18 Noroeste 0 -- -- 59
2020-04-02 14:00:00 14.8 8 Norte 19 Noroeste 0 -- -- 64
2020-04-02 13:00:00 13.6 7 Norte 14 Nordeste 0.2 -- -- 68
2020-04-02 12:00:00 11.5 4 Noroeste 14 Oeste 0 -- -- 84
2020-04-02 11:00:00 9.3 6 Oeste 10 Oeste 0 -- -- 90
2020-04-02 10:00:00 7.6 6 Oeste 10 Oeste 0 -- -- 94
2020-04-02 09:00:00 6.4 5 Oeste 9 Sudoeste 0 -- -- 96
2020-04-02 08:00:00 6.4 2 Sudoeste 4 Sur 0 -- -- 95
2020-04-02 07:00:00 6.5 3 Sudoeste 8 Oeste 0 -- -- 92
2020-04-02 06:00:00 6.4 5 Sudoeste 12 Oeste 0.6 -- -- 93
2020-04-02 05:00:00 6.6 0 Calma 8 Sudoeste 6 -- -- 95
2020-04-02 04:00:00 6.8 4 Sudoeste 8 Sudoeste 3.4 -- -- 96
2020-04-02 03:00:00 6.8 0 Calma 6 Oeste 6.6 -- -- 96
2020-04-02 02:00:00 6.9 3 Noroeste 6 Oeste 3.6 -- -- 96
2020-04-02 01:00:00 7.1 4 Este 8 Este 1.2 -- -- 95
2020-04-02 00:00:00 7.1 5 Sur 20 Sudoeste 2.2 -- -- 91
2020-04-01 23:00:00 7.9 10 Sudoeste 29 Este 0.6 -- -- 88
2020-04-01 22:00:00 10.1 15 Este 26 Este 0 -- -- 77
2020-04-01 21:00:00 9.8 9 Sudeste 13 Sudeste 0 -- -- 81
2020-04-01 20:00:00 10.3 3 Sur 19 Sudeste 0.2 -- -- 79
2020-04-01 19:00:00 11.5 8 Sudeste 27 Sudeste 0 -- -- 63
2020-04-01 18:00:00 12 11 Sudeste 33 Sudoeste 0 -- -- 68
2020-04-01 17:00:00 12.8 9 Sudeste 30 Sudeste 0 -- -- 60
2020-04-01 16:00:00 12.8 10 Sudeste 27 Sur 0 -- -- 58
2020-04-01 15:00:00 12 7 Este 21 Este 0 -- -- 62
2020-04-01 14:00:00 11.3 8 Sudoeste 24 Sudoeste 0.2 -- -- 65
2020-04-01 13:00:00 10.7 6 Sur 20 Este 0 -- -- 59
2020-04-01 12:00:00 9.1 7 Sudeste 15 Sudeste 0 -- -- 75
2020-04-01 11:00:00 7.3 3 Norte 9 Sudeste 0 -- -- 91
2020-04-01 10:00:00 6.2 4 Noroeste 12 Sudeste 0 -- -- 93
2020-04-01 09:00:00 5.4 9 Sudeste 21 Sudeste 0 -- -- 98
2020-04-01 08:00:00 3.5 8 Sur 20 Sur 0 -- -- 99
2020-04-01 07:00:00 1.4 0 Calma 5 Sur 0 -- -- 97
2020-04-01 06:00:00 2 0 Calma 5 Sur 0 -- -- 96
2020-04-01 05:00:00 2.3 2 Sur 6 Sur 0 -- -- 96
2020-04-01 04:00:00 3.2 0 Calma 7 Sur 0 -- -- 93
2020-04-01 03:00:00 4.8 0 Calma 10 Sur 0 -- -- 92
2020-04-01 02:00:00 5.8 5 Sudoeste 9 Sur 0 -- -- 87
2020-04-01 01:00:00 5.7 7 Sudoeste 15 Sudoeste 0 -- -- 84
2020-04-01 00:00:00 6.3 12 Sudoeste 19 Sudoeste 0 -- -- 86
2020-03-31 23:00:00 6.5 15 Sudoeste 22 Sudoeste 0 -- -- 88
2020-03-31 22:00:00 7.5 6 Sudoeste 22 Sudoeste 0 -- -- 87
2020-03-31 21:00:00 9.3 11 Sudoeste 22 Sudoeste 0 -- -- 87
2020-03-31 20:00:00 11.3 10 Sudoeste 21 Sudoeste 0 -- -- 81
2020-03-31 19:00:00 11.6 6 Sudoeste 14 Sudoeste 0 -- -- 83
2020-03-31 18:00:00 11.4 6 Noroeste 16 Oeste 0 -- -- 91
2020-03-31 17:00:00 11.1 2 Noroeste 9 Nordeste 0 -- -- 94
2020-03-31 16:00:00 10.4 3 Oeste 6 Noroeste 0.4 -- -- 94
2020-03-31 15:00:00 9.8 2 Noroeste 5 Oeste 0.8 -- -- 95
2020-03-31 14:00:00 8.5 0 Calma 5 Norte 0 -- -- 96
2020-03-31 13:00:00 7.6 3 Nordeste 9 Nordeste 0.6 -- -- 97
2020-03-31 12:00:00 6.3 5 Nordeste 8 Nordeste 0.4 -- -- 97
2020-03-31 11:00:00 5.5 4 Nordeste 15 Nordeste 0.2 -- -- 96
2020-03-31 10:00:00 4.8 4 Nordeste 23 Este 0.2 -- -- 96
2020-03-31 09:00:00 4.4 12 Este 26 Este 1.6 -- -- 96
2020-03-31 08:00:00 4.2 8 Nordeste 21 Este 2 -- -- 97
2020-03-31 07:00:00 4.2 10 Este 25 Este 2.8 -- -- 96
2020-03-31 06:00:00 4.4 12 Este 30 Este 2 -- -- 95
2020-03-31 05:00:00 4.7 14 Este 34 Este 2.2 -- -- 93
2020-03-31 04:00:00 5.2 15 Este 35 Este 0 -- -- 87
2020-03-31 03:00:00 5.4 16 Este 32 Este 0 -- -- 86
2020-03-31 02:00:00 5.3 15 Este 36 Este 0 -- -- 90
2020-03-31 01:00:00 5.2 16 Este 37 Este 0.2 -- -- 93
2020-03-31 00:00:00 5.4 18 Este 33 Este 0 -- -- 94
2020-03-30 23:00:00 5.7 12 Este 28 Este 0.4 -- -- 93
2020-03-30 22:00:00 6.5 11 Este 32 Este 0.6 -- -- 91
2020-03-30 21:00:00 7.4 12 Este 24 Este 0 -- -- 87
2020-03-30 20:00:00 8.5 7 Nordeste 26 Nordeste 0 -- -- 87
2020-03-30 19:00:00 9.1 6 Nordeste 19 Este 0 -- -- 82
2020-03-30 18:00:00 9.1 6 Este 13 Este 0 -- -- 77
2020-03-30 17:00:00 9.9 3 Norte 15 Nordeste 0 -- -- 80
2020-03-30 16:00:00 10 8 Nordeste 17 Nordeste 0.2 -- -- 79
2020-03-30 15:00:00 10.7 9 Norte 16 Nordeste 0.2 -- -- 76
2020-03-30 14:00:00 11.6 4 Nordeste 10 Nordeste 0.2 -- -- 74
2020-03-30 13:00:00 11.5 4 Oeste 7 Oeste 0 -- -- 75
2020-03-30 12:00:00 10.5 0 Calma 4 Nordeste 0 -- -- 77
2020-03-30 11:00:00 9.5 0 Calma 5 Oeste 0 -- -- 82
2020-03-30 10:00:00 9 0 Calma 10 Oeste 0 -- -- 83
2020-03-30 09:00:00 7.9 4 Oeste 6 Oeste 0 -- -- 92
2020-03-30 08:00:00 6.4 0 Calma 9 Sur 0 -- -- 91
2020-03-30 07:00:00 6.1 4 Sudeste 10 Sudeste 0 -- -- 92
2020-03-30 06:00:00 7.1 0 Calma 3 Oeste 0 -- -- 88
2020-03-30 05:00:00 7.8 2 Este 13 Sudoeste 0 -- -- 86
2020-03-30 04:00:00 10.6 5 Sudoeste 11 Sudoeste 0 -- -- 74
2020-03-30 03:00:00 10.3 8 Sudoeste 10 Oeste 0 -- -- 78
2020-03-30 02:00:00 9.3 0 Calma 4 Oeste 0 -- -- 80
2020-03-30 01:00:00 10.8 6 Sudoeste 9 Sudoeste 0 -- -- 74
2020-03-30 00:00:00 12.4 4 Sur 21 Sudoeste 0 -- -- 68
2020-03-29 23:00:00 13.9 15 Sudoeste 20 Sudoeste 0 -- -- 63
2020-03-29 22:00:00 14.3 9 Sudoeste 13 Sudoeste 0 -- -- 61
2020-03-29 21:00:00 14.6 9 Sudoeste 12 Sudoeste 0 -- -- 61
2020-03-29 20:00:00 17.1 5 Sudoeste 13 Oeste 0 -- -- 53
2020-03-29 19:00:00 18.2 6 Sudoeste 16 Oeste 0 -- -- 47
2020-03-29 18:00:00 18.6 8 Sur 26 Sudoeste 0 -- -- 44
2020-03-29 17:00:00 19.5 4 Este 16 Sudeste 0 -- -- 45
2020-03-29 16:00:00 19.2 4 Noroeste 15 Nordeste 0 -- -- 46
2020-03-29 15:00:00 17 5 Nordeste 9 Nordeste 0 -- -- 53
2020-03-29 14:00:00 16.6 2 Noroeste 5 Norte 0 -- -- 55
2020-03-29 13:00:00 16.4 3 Norte 10 Norte 0 -- -- 56
2020-03-29 12:00:00 15.4 4 Nordeste 9 Nordeste 0 -- -- 63
2020-03-29 11:00:00 11.9 3 Nordeste 6 Nordeste 0 -- -- 78
2020-03-29 10:00:00 8.1 0 Calma 4 Sur 0 -- -- 87
2020-03-29 09:00:00 5.8 3 Sur 4 Sur 0 -- -- 91
2020-03-29 08:00:00 4.1 2 Sudeste 4 Sudeste 0 -- -- 93
2020-03-29 07:00:00 4.7 2 Sudoeste 5 Sur 0 -- -- 91
2020-03-29 06:00:00 4.8 0 Calma 5 Sur 0 -- -- 93
2020-03-29 05:00:00 5.3 0 Calma 4 Noroeste 0 -- -- 89
2020-03-29 03:00:00 6.9 0 Calma 3 Oeste 0 -- -- 84
2020-03-29 01:00:00 7.6 0 Calma 4 Sur 0 -- -- 81
2020-03-29 00:00:00 8.3 0 Calma 3 Sur 0 -- -- 78
2020-03-28 23:00:00 9.9 4 Este 8 Sudeste 0 -- -- 70
2020-03-28 22:00:00 9.5 2 Sudeste 7 Sur 0 -- -- 72
2020-03-28 21:00:00 10.6 7 Sur 9 Sur 0 -- -- 66
2020-03-28 20:00:00 12.2 8 Sudeste 9 Sudeste 0 -- -- 64
2020-03-28 19:00:00 15.9 8 Este 18 Este 0 -- -- 51
2020-03-28 18:00:00 16.7 10 Este 20 Sudeste 0 -- -- 44
2020-03-28 17:00:00 17.6 5 Sur 22 Este 0 -- -- 42
2020-03-28 16:00:00 16.6 14 Este 26 Este 0 -- -- 46
2020-03-28 15:00:00 16.2 12 Este 25 Este 0 -- -- 47
2020-03-28 14:00:00 15 13 Este 29 Este 0 -- -- 52
2020-03-28 13:00:00 14.4 13 Este 27 Este 0 -- -- 55
2020-03-28 12:00:00 13.2 12 Este 24 Este 0 -- -- 60
2020-03-28 11:00:00 11.6 5 Nordeste 13 Nordeste 0 -- -- 70
2020-03-28 10:00:00 8.5 2 Norte 5 Nordeste 0 -- -- 79
2020-03-28 09:00:00 5.5 3 Oeste 5 Noroeste 0 -- -- 87
2020-03-28 08:00:00 4 0 Calma 7 Este 0 -- -- 90
2020-03-28 07:00:00 2.3 0 Calma 7 Este 0 -- -- 90
2020-03-28 06:00:00 3.3 0 Calma 8 Sudeste 0 -- -- 88
2020-03-28 05:00:00 4.1 6 Este 10 Sudeste 0 -- -- 89
2020-03-28 04:00:00 2.7 3 Sur 4 Sur 0 -- -- 90
2020-03-28 03:00:00 3.5 3 Sudeste 6 Sudeste 0 -- -- 88
2020-03-28 02:00:00 5 0 Calma 10 Este 0 -- -- 82
2020-03-28 01:00:00 7.7 4 Este 13 Este 0 -- -- 71
2020-03-28 00:00:00 8.2 9 Sudeste 16 Este 0 -- -- 67
2020-03-27 23:00:00 9.1 9 Este 20 Este 0 -- -- 63
2020-03-27 22:00:00 9.3 10 Este 20 Este 0 -- -- 63
2020-03-27 21:00:00 9.3 6 Este 16 Sudeste 0 -- -- 63
2020-03-27 20:00:00 10.7 5 Este 23 Nordeste 0 -- -- 59
2020-03-27 19:00:00 12.9 10 Este 26 Este 0 -- -- 51
2020-03-27 18:00:00 14.2 9 Nordeste 27 Este 0 -- -- 48
2020-03-27 17:00:00 14.5 12 Nordeste 29 Nordeste 0 -- -- 49
2020-03-27 16:00:00 14.4 11 Nordeste 27 Este 0 -- -- 50
2020-03-27 15:00:00 15.3 14 Nordeste 32 Nordeste 0 -- -- 51
2020-03-27 14:00:00 14.3 14 Nordeste 32 Nordeste 0 -- -- 54
2020-03-27 13:00:00 13.9 8 Nordeste 27 Este 0 -- -- 57
2020-03-27 12:00:00 13 11 Nordeste 32 Nordeste 0 -- -- 55
2020-03-27 11:00:00 11.9 12 Nordeste 26 Nordeste 0 -- -- 57
2020-03-27 10:00:00 10.3 10 Nordeste 21 Nordeste 0 -- -- 63
2020-03-27 09:00:00 8 4 Norte 12 Norte 0 -- -- 72
2020-03-27 08:00:00 4.1 0 Calma 5 Oeste 0 -- -- 89
2020-03-27 07:00:00 4.3 0 Calma 10 Este 0 -- -- 85
2020-03-27 06:00:00 4.2 3 Sudoeste 9 Sudoeste 0 -- -- 90
2020-03-27 05:00:00 4.9 4 Sudoeste 7 Sudoeste 0 -- -- 90
2020-03-27 04:00:00 6 4 Sudoeste 8 Sudoeste 0 -- -- 84
2020-03-27 03:00:00 8.5 6 Sudoeste 17 Sudoeste 0 -- -- 72
2020-03-27 02:00:00 9.5 10 Sudoeste 19 Sudoeste 0 -- -- 68
2020-03-27 01:00:00 9.3 10 Sudoeste 17 Sudoeste 0 -- -- 73
2020-03-27 00:00:00 9.6 8 Sudoeste 19 Sudoeste 0 -- -- 73
2020-03-26 23:00:00 10.5 12 Oeste 21 Oeste 0 -- -- 72
2020-03-26 22:00:00 11.5 12 Oeste 23 Oeste 0 -- -- 69
2020-03-26 21:00:00 13 12 Sudoeste 22 Oeste 0 -- -- 65
2020-03-26 20:00:00 14.6 14 Oeste 31 Oeste 0 -- -- 60
2020-03-26 19:00:00 17.3 17 Oeste 35 Oeste 0 -- -- 52
2020-03-26 18:00:00 18.9 20 Oeste 37 Oeste 0 -- -- 50
2020-03-26 17:00:00 19.8 17 Oeste 35 Oeste 0 -- -- 46
2020-03-26 16:00:00 19.9 14 Oeste 27 Oeste 0 -- -- 48
2020-03-26 15:00:00 19.3 13 Oeste 27 Oeste 0 -- -- 50
2020-03-26 14:00:00 18.6 15 Noroeste 31 Noroeste 0 -- -- 45
2020-03-26 13:00:00 17.4 15 Noroeste 27 Noroeste 0 -- -- 46
2020-03-26 12:00:00 16.6 12 Noroeste 22 Oeste 0 -- -- 53
2020-03-26 11:00:00 15.1 8 Oeste 19 Oeste 0 -- -- 62
2020-03-26 10:00:00 12.9 8 Oeste 14 Oeste 0 -- -- 71
2020-03-26 09:00:00 10.9 7 Oeste 17 Oeste 0 -- -- 75
2020-03-26 08:00:00 9.4 8 Oeste 15 Oeste 0 -- -- 79
2020-03-26 07:00:00 9.4 9 Sudoeste 17 Sudoeste 0 -- -- 78
2020-03-26 06:00:00 9.7 9 Sudoeste 14 Sudoeste 0 -- -- 79
2020-03-26 05:00:00 10.5 6 Sudoeste 15 Oeste 0 -- -- 75
2020-03-26 04:00:00 11.4 9 Oeste 21 Oeste 0 -- -- 72
2020-03-26 03:00:00 11.8 13 Sudoeste 21 Sudoeste 0 -- -- 72
2020-03-26 02:00:00 13 14 Sudoeste 23 Sudoeste 0 -- -- 68
2020-03-26 01:00:00 13.2 14 Sudoeste 22 Sudoeste 0 -- -- 70
2020-03-26 00:00:00 13.3 14 Sudoeste 21 Sudoeste 0 -- -- 76
2020-03-25 23:00:00 13.7 13 Sudoeste 21 Sudoeste 0 -- -- 72
2020-03-25 22:00:00 14.3 12 Sudoeste 21 Oeste 0 -- -- 67
2020-03-25 21:00:00 15.3 16 Oeste 26 Oeste 0 -- -- 67
2020-03-25 20:00:00 16.3 10 Sudoeste 17 Sudoeste 0 -- -- 59
2020-03-25 19:00:00 18 8 Oeste 23 Oeste 0 -- -- 53
2020-03-25 18:00:00 19.8 11 Oeste 21 Oeste 0 -- -- 46
2020-03-25 17:00:00 20.3 9 Oeste 19 Oeste 0 -- -- 47
2020-03-25 16:00:00 20 9 Noroeste 21 Oeste 0 -- -- 47
2020-03-25 15:00:00 19.6 6 Noroeste 23 Oeste 0 -- -- 50
2020-03-25 14:00:00 18.7 5 Oeste 21 Oeste 0 -- -- 51
2020-03-25 13:00:00 17.6 7 Oeste 15 Oeste 0 -- -- 55
2020-03-25 12:00:00 16.7 3 Este 10 Norte 0 -- -- 57
2020-03-25 11:00:00 15 3 Nordeste 9 Norte 0 -- -- 58
2020-03-25 10:00:00 12.9 2 Oeste 6 Noroeste 0 -- -- 71
2020-03-25 09:00:00 10.6 3 Noroeste 5 Oeste 0 -- -- 82
2020-03-25 08:00:00 9.3 0 Calma 3 Noroeste 0 -- -- 87
2020-03-25 07:00:00 9.3 2 Este 9 Sudeste 0 -- -- 86
2020-03-25 06:00:00 9 5 Sudeste 8 Sudeste 0 -- -- 85
2020-03-25 05:00:00 9 0 Calma 12 Este 0 -- -- 85
2020-03-25 04:00:00 10 4 Este 10 Este 0 -- -- 79
2020-03-25 03:00:00 8.9 4 Este 10 Noroeste 0 -- -- 85
2020-03-25 02:00:00 10.5 6 Norte 27 Sudeste 0 -- -- 77
2020-03-25 01:00:00 10.3 10 Este 22 Este 0 -- -- 79
2020-03-25 00:00:00 12.7 11 Este 27 Este 0 -- -- 66
2020-03-24 23:00:00 12.9 10 Sudeste 17 Sudeste 0 -- -- 67
2020-03-24 22:00:00 11.3 3 Sudeste 7 Este 0 -- -- 79
2020-03-24 21:00:00 13.6 3 Este 12 Este 0 -- -- 72
2020-03-24 20:00:00 14.7 7 Este 27 Este 0 -- -- 66
2020-03-24 19:00:00 16.3 9 Este 32 Este 0 -- -- 58
2020-03-24 18:00:00 16.9 18 Este 37 Este 0 -- -- 55
2020-03-24 17:00:00 17 13 Este 41 Este 0 -- -- 55
2020-03-24 16:00:00 16.8 14 Nordeste 38 Nordeste 0 -- -- 57
2020-03-24 15:00:00 16.7 14 Nordeste 33 Este 0 -- -- 59
2020-03-24 14:00:00 16.8 15 Este 36 Nordeste 0 -- -- 61
2020-03-24 13:00:00 16 14 Nordeste 38 Nordeste 0 -- -- 60
2020-03-24 12:00:00 15.3 16 Nordeste 40 Este 0 -- -- 66
2020-03-24 11:00:00 15.1 17 Nordeste 37 Nordeste 0 -- -- 67
2020-03-24 10:00:00 14 15 Nordeste 35 Nordeste 0 -- -- 70
2020-03-24 09:00:00 12.8 13 Este 31 Nordeste 0 -- -- 73
2020-03-24 08:00:00 11.1 9 Este 26 Este 0 -- -- 80
2020-03-24 07:00:00 10.5 15 Este 27 Este 0 -- -- 83
2020-03-24 06:00:00 10.5 5 Este 14 Este 0 -- -- 85
2020-03-24 05:00:00 10.2 6 Este 12 Este 0 -- -- 87
2020-03-24 04:00:00 10 6 Este 11 Sudeste 0 -- -- 86
2020-03-24 03:00:00 8.9 0 Calma 9 Este 0 -- -- 85
2020-03-24 02:00:00 9.9 4 Este 15 Este 0 -- -- 80
2020-03-24 01:00:00 10 8 Este 18 Este 0 -- -- 79
2020-03-24 00:00:00 10.4 8 Este 17 Este 0 -- -- 78
2020-03-23 23:00:00 11.2 8 Sudeste 15 Este 0 -- -- 75
2020-03-23 22:00:00 11.8 6 Este 15 Nordeste 0 -- -- 72
2020-03-23 21:00:00 12.1 8 Este 15 Este 0 -- -- 70
2020-03-23 20:00:00 12.9 5 Este 10 Este 0 -- -- 70
2020-03-23 19:00:00 14.9 5 Este 24 Nordeste 0 -- -- 62
2020-03-23 18:00:00 16.3 12 Nordeste 28 Nordeste 0 -- -- 63
2020-03-23 17:00:00 16.3 10 Nordeste 33 Este 0 -- -- 56
2020-03-23 16:00:00 16.9 13 Nordeste 30 Este 0 -- -- 56
2020-03-23 15:00:00 16.6 11 Nordeste 31 Este 0 -- -- 58
2020-03-23 14:00:00 14.9 8 Nordeste 21 Nordeste 0 -- -- 67
2020-03-23 13:00:00 16 9 Nordeste 25 Nordeste 0 -- -- 62
2020-03-23 12:00:00 15.4 12 Este 25 Este 0 -- -- 68
2020-03-23 11:00:00 14.1 11 Este 23 Nordeste 0 -- -- 70
2020-03-23 10:00:00 12.5 7 Nordeste 15 Este 0 -- -- 81
2020-03-23 09:00:00 11 9 Este 17 Este 0 -- -- 85
2020-03-23 08:00:00 9 4 Este 7 Sudeste 0 -- -- 94
2020-03-23 07:00:00 8.4 4 Este 7 Sudeste 0 -- -- 95
2020-03-23 06:00:00 8.1 0 Calma 3 Noroeste 0 -- -- 96
2020-03-23 05:00:00 7.2 0 Calma 4 Oeste 0 -- -- 96
2020-03-23 04:00:00 7.1 3 Noroeste 5 Oeste 0 -- -- 95
2020-03-23 03:00:00 7.4 2 Sudeste 9 Sudeste 0 -- -- 91
2020-03-23 02:00:00 7.7 0 Calma 6 Sudeste 0 -- -- 90
2020-03-23 01:00:00 8 4 Sudeste 8 Sudeste 0 -- -- 89
2020-03-23 00:00:00 9.4 4 Sur 5 Sur 0 -- -- 85
2020-03-22 23:00:00 11.2 0 Calma 8 Oeste 0 -- -- 85
2020-03-22 22:00:00 11.6 3 Oeste 14 Este 0 -- -- 82
2020-03-22 21:00:00 12.5 8 Este 17 Este 0 -- -- 76
2020-03-22 20:00:00 12.5 4 Sur 8 Noroeste 0 -- -- 73
2020-03-22 19:00:00 15.6 5 Noroeste 19 Oeste 0 -- -- 58
2020-03-22 18:00:00 16.5 9 Noroeste 24 Noroeste 0 -- -- 53
2020-03-22 17:00:00 16.5 8 Noroeste 19 Noroeste 0 -- -- 55
2020-03-22 16:00:00 15.9 9 Nordeste 19 Nordeste 0 -- -- 53
2020-03-22 15:00:00 15.8 9 Nordeste 19 Nordeste 0 -- -- 62
2020-03-22 14:00:00 14.1 3 Norte 13 Norte 0 -- -- 65
2020-03-22 13:00:00 13.4 9 Nordeste 19 Este 0 -- -- 70
2020-03-22 12:00:00 12.8 4 Este 12 Sudeste 0 -- -- 73
2020-03-22 11:00:00 11 4 Nordeste 9 Norte 0.2 -- -- 81
2020-03-22 10:00:00 9.9 2 Norte 5 Nordeste 0 -- -- 91
2020-03-22 09:00:00 7.3 3 Noroeste 8 Noroeste 0 -- -- 97
2020-03-22 08:00:00 6.5 4 Sudeste 9 Sudeste 0 -- -- 97
2020-03-22 07:00:00 7.7 2 Sudeste 5 Este 0 -- -- 96
2020-03-22 06:00:00 8.2 0 Calma 4 Oeste 0 -- -- 97
2020-03-22 05:00:00 8 0 Calma 5 Este 0 -- -- 96
2020-03-22 04:00:00 7.9 0 Calma 10 Sudeste 0 -- -- 94
2020-03-22 03:00:00 8 2 Este 6 Este 0 -- -- 96
2020-03-22 02:00:00 8.1 3 Sudeste 10 Este 0 -- -- 95
2020-03-22 01:00:00 8.5 5 Sudeste 8 Sudeste 0 -- -- 95
2020-03-22 00:00:00 8.8 4 Este 7 Este 0.2 -- -- 95
2020-03-21 23:00:00 8.7 0 Calma 3 Sudeste 0 -- -- 94
2020-03-21 22:00:00 8.8 0 Calma 4 Sudeste 0 -- -- 93
2020-03-21 21:00:00 8.8 0 Calma 6 Norte 0.8 -- -- 93
2020-03-21 20:00:00 9 3 Nordeste 12 Sur 0.8 -- -- 93
2020-03-21 19:00:00 9.3 4 Sudeste 33 Sudeste 1.2 -- -- 89
2020-03-21 18:00:00 9.6 19 Sur 32 Sur 1.4 -- -- 83
2020-03-21 17:00:00 10.7 15 Sur 23 Sudeste 0 -- -- 83
2020-03-21 16:00:00 13.5 11 Este 18 Este 0 -- -- 60
2020-03-21 15:00:00 13.1 13 Este 23 Este 0 -- -- 63
2020-03-21 14:00:00 13.5 8 Sur 25 Este 0 -- -- 62
2020-03-21 13:00:00 12.7 9 Sur 20 Sudoeste 0 -- -- 74
2020-03-21 12:00:00 12.1 6 Sudoeste 17 Sudoeste 0 -- -- 73
2020-03-21 11:00:00 10.3 6 Sur 17 Sudeste 0 -- -- 86
2020-03-21 10:00:00 9.2 8 Sur 14 Sur 0 -- -- 92
2020-03-21 09:00:00 8.7 4 Sudoeste 12 Oeste 0.2 -- -- 95
2020-03-21 08:00:00 8.4 3 Oeste 12 Oeste 3.4 -- -- 95
2020-03-21 07:00:00 8.6 6 Sudoeste 16 Sur 1.4 -- -- 94
2020-03-21 06:00:00 9.1 4 Sudeste 16 Sur 0 -- -- 94
2020-03-21 05:00:00 9.6 4 Sudeste 18 Este 1.4 -- -- 93
2020-03-21 04:00:00 9.6 5 Este 12 Este 3.2 -- -- 98
2020-03-21 03:00:00 9.7 0 Calma 5 Este 3.6 -- -- 97
2020-03-21 02:00:00 9.7 3 Este 5 Este 6.2 -- -- 97
2020-03-21 01:00:00 10 2 Este 4 Oeste 6.8 -- -- 96
2020-03-21 00:00:00 10.2 4 Sudoeste 14 Sudoeste 3.2 -- -- 95
2020-03-20 23:00:00 10.6 6 Oeste 20 Oeste 1.8 -- -- 95
2020-03-20 22:00:00 10.9 7 Oeste 15 Oeste 3.4 -- -- 95
2020-03-20 21:00:00 11.2 3 Sur 4 Sur 0.2 -- -- 94
2020-03-20 20:00:00 11.4 2 Sur 5 Sudoeste 0.2 -- -- 94
2020-03-20 19:00:00 11.5 0 Calma 15 Sudeste 3 -- -- 93
2020-03-20 18:00:00 12.1 4 Nordeste 11 Nordeste 5.4 -- -- 95
2020-03-20 17:00:00 12.4 5 Este 12 Sudeste 2.8 -- -- 96
2020-03-20 16:00:00 12.7 4 Sudeste 17 Sur 2.4 -- -- 90
2020-03-20 15:00:00 12.9 9 Sudeste 22 Sudeste 1.2 -- -- 89
2020-03-20 14:00:00 13.4 10 Sur 21 Sur 0.2 -- -- 92
2020-03-20 13:00:00 11.9 3 Nordeste 10 Este 1.8 -- -- 97
2020-03-20 12:00:00 11.4 0 Calma 8 Este 3 -- -- 96
2020-03-20 11:00:00 11.3 3 Este 5 Este 1.6 -- -- 96
2020-03-20 10:00:00 11.2 0 Calma 3 Nordeste 0.2 -- -- 95
2020-03-20 09:00:00 11.1 2 Este 5 Noroeste 1 -- -- 94
2020-03-20 08:00:00 11.1 0 Calma 9 Este 0.2 -- -- 91
2020-03-20 07:00:00 11.1 3 Nordeste 12 Este 0 -- -- 89
2020-03-20 06:00:00 11.5 7 Este 17 Nordeste 0 -- -- 86
2020-03-20 05:00:00 12.1 6 Este 14 Este 0 -- -- 83
2020-03-20 04:00:00 11 3 Este 10 Este 0 -- -- 86
2020-03-20 03:00:00 10.1 2 Sudeste 10 Noroeste 0 -- -- 85
2020-03-20 02:00:00 12.2 4 Nordeste 20 Este 0 -- -- 73
2020-03-20 01:00:00 11.2 6 Este 11 Este 0 -- -- 78
2020-03-20 00:00:00 11.1 0 Calma 11 Este 0 -- -- 77
2020-03-19 23:00:00 13.5 8 Este 19 Este 0 -- -- 68
2020-03-19 22:00:00 14.1 12 Este 19 Este 0 -- -- 66
2020-03-19 21:00:00 14.1 7 Este 15 Este 0 -- -- 68
2020-03-19 20:00:00 14.6 9 Este 13 Este 0 -- -- 66
2020-03-19 19:00:00 16 5 Nordeste 17 Nordeste 0 -- -- 62
2020-03-19 18:00:00 17.5 6 Nordeste 22 Nordeste 0 -- -- 56
2020-03-19 17:00:00 18.5 10 Nordeste 22 Nordeste 0 -- -- 51
2020-03-19 16:00:00 18.9 9 Nordeste 25 Nordeste 0 -- -- 51
2020-03-19 15:00:00 18.5 13 Nordeste 28 Este 0 -- -- 52
2020-03-19 14:00:00 18.5 17 Este 33 Este 0 -- -- 47
2020-03-19 13:00:00 16.4 8 Este 18 Este 0 -- -- 53
2020-03-19 12:00:00 14.5 9 Nordeste 19 Este 0 -- -- 58
2020-03-19 11:00:00 13.3 8 Este 15 Este 0 -- -- 61
2020-03-19 10:00:00 11.2 6 Este 14 Este 0 -- -- 68
2020-03-19 09:00:00 10.2 7 Este 12 Este 0 -- -- 69
2020-03-19 08:00:00 9.3 6 Este 9 Este 0 -- -- 62
2020-03-19 07:00:00 8.9 6 Este 15 Este 0 -- -- 69
2020-03-19 06:00:00 10 8 Este 33 Sudeste 0 -- -- 71
2020-03-19 05:00:00 13.7 20 Este 36 Este 0 -- -- 45
2020-03-19 04:00:00 10.2 6 Este 10 Este 0 -- -- 79
2020-03-19 03:00:00 10.9 2 Nordeste 10 Sudeste 0 -- -- 74
2020-03-19 02:00:00 10.6 6 Sudeste 8 Sudeste 0 -- -- 80
2020-03-19 01:00:00 11.6 3 Sudoeste 7 Este 0 -- -- 77
2020-03-19 00:00:00 14.4 4 Nordeste 20 Sudeste 0 -- -- 66
2020-03-18 23:00:00 14.9 11 Este 21 Este 0 -- -- 64
2020-03-18 22:00:00 15.2 12 Este 25 Este 0 -- -- 65
2020-03-18 21:00:00 15.2 10 Este 18 Este 0 -- -- 65
2020-03-18 20:00:00 15.8 9 Este 17 Nordeste 0 -- -- 64
2020-03-18 19:00:00 16.3 5 Nordeste 18 Nordeste 0 -- -- 61
2020-03-18 18:00:00 17.3 8 Nordeste 24 Nordeste 0 -- -- 58
2020-03-18 17:00:00 19.3 13 Nordeste 31 Nordeste 0 -- -- 53
2020-03-18 16:00:00 20.2 12 Nordeste 27 Nordeste 0 -- -- 51
2020-03-18 15:00:00 20.4 13 Nordeste 32 Este 0 -- -- 48
2020-03-18 14:00:00 19.2 13 Nordeste 27 Este 0 -- -- 55
2020-03-18 13:00:00 18 13 Nordeste 28 Nordeste 0 -- -- 55
2020-03-18 12:00:00 16.4 12 Nordeste 27 Norte 0 -- -- 60
2020-03-18 11:00:00 15.8 10 Nordeste 29 Norte 0 -- -- 62
2020-03-18 10:00:00 14.5 14 Este 34 Este 0 -- -- 67
2020-03-18 09:00:00 12.4 14 Este 26 Este 0 -- -- 72
2020-03-18 08:00:00 11.4 17 Este 26 Este 0 -- -- 74
2020-03-18 07:00:00 11.3 11 Este 24 Este 0 -- -- 78
2020-03-18 06:00:00 11.2 4 Este 21 Este 0 -- -- 83
2020-03-18 05:00:00 12.1 11 Este 23 Este 0 -- -- 81
2020-03-18 04:00:00 13.1 15 Este 28 Este 0 -- -- 78
2020-03-18 03:00:00 12.8 12 Este 24 Este 0 -- -- 78
2020-03-18 02:00:00 12.7 9 Este 26 Este 0 -- -- 78
2020-03-18 01:00:00 12.9 13 Este 28 Este 0 -- -- 77
2020-03-18 00:00:00 12.3 11 Este 18 Este 0 -- -- 75
2020-03-17 23:00:00 9 4 Sudeste 8 Sudeste 0 -- -- 80
2020-03-17 22:00:00 9.4 3 Sur 8 Sur 0 -- -- 73
2020-03-17 21:00:00 9.9 3 Sudeste 8 Sur 0 -- -- 65
2020-03-17 20:00:00 11 5 Sudeste 10 Sudeste 0 -- -- 61
2020-03-17 19:00:00 15.7 7 Sudeste 22 Este 0 -- -- 44
2020-03-17 18:00:00 17.2 14 Este 30 Este 0 -- -- 40
2020-03-17 17:00:00 17.5 17 Este 33 Nordeste 0 -- -- 39
2020-03-17 16:00:00 17.2 15 Este 35 Este 0 -- -- 37
2020-03-17 15:00:00 17 18 Este 39 Sudeste 0 -- -- 35
2020-03-17 14:00:00 16.1 22 Este 43 Este 0 -- -- 38
2020-03-17 13:00:00 15.5 21 Este 40 Este 0 -- -- 41
2020-03-17 12:00:00 14.2 12 Nordeste 28 Este 0 -- -- 51
2020-03-17 11:00:00 12.3 12 Este 25 Este 0 -- -- 61
2020-03-17 10:00:00 8.6 5 Este 15 Este 0 -- -- 79
2020-03-17 09:00:00 6.4 5 Este 12 Este 0 -- -- 86
2020-03-17 08:00:00 3.6 6 Este 9 Este 0 -- -- 93
2020-03-17 07:00:00 3.8 5 Este 13 Este 0 -- -- 91
2020-03-17 06:00:00 4.1 6 Este 13 Nordeste 0 -- -- 91
2020-03-17 05:00:00 4.4 4 Este 15 Este 0 -- -- 89
2020-03-17 04:00:00 4.5 3 Este 17 Este 0 -- -- 89
2020-03-17 03:00:00 3.2 0 Calma 8 Sudeste 0 -- -- 90
2020-03-17 02:00:00 4.5 4 Este 9 Este 0 -- -- 90
2020-03-17 01:00:00 5.1 0 Calma 9 Este 0 -- -- 86
2020-03-17 00:00:00 6.7 5 Nordeste 19 Nordeste 0 -- -- 84
2020-03-16 23:00:00 7.4 11 Nordeste 24 Nordeste 0 -- -- 79
2020-03-16 22:00:00 7.4 6 Norte 18 Nordeste 0 -- -- 83
2020-03-16 21:00:00 7.4 6 Nordeste 30 Norte 0 -- -- 83
2020-03-16 20:00:00 8 14 Norte 34 Noroeste 0.2 -- -- 81
2020-03-16 19:00:00 8.7 4 Norte 15 Norte 0 -- -- 81
2020-03-16 18:00:00 8.5 4 Oeste 18 Noroeste 0.4 -- -- 82
2020-03-16 17:00:00 9 10 Noroeste 35 Noroeste 0 -- -- 76
2020-03-16 16:00:00 8.9 18 Noroeste 38 Noroeste 0 -- -- 70
2020-03-16 15:00:00 9.3 15 Noroeste 36 Noroeste 0 -- -- 66
2020-03-16 14:00:00 9.4 19 Norte 37 Noroeste 0 -- -- 65
2020-03-16 13:00:00 10.1 21 Noroeste 37 Noroeste 0 -- -- 55
2020-03-16 12:00:00 9.7 16 Noroeste 38 Noroeste 0 -- -- 55
2020-03-16 11:00:00 9.8 21 Noroeste 38 Noroeste 0 -- -- 56
2020-03-16 10:00:00 8.6 18 Noroeste 36 Noroeste 0 -- -- 60
2020-03-16 09:00:00 6.3 13 Oeste 24 Oeste 0 -- -- 68
2020-03-16 08:00:00 4.4 12 Oeste 22 Oeste 0 -- -- 74
2020-03-16 07:00:00 4.1 8 Oeste 23 Oeste 0 -- -- 78
2020-03-16 06:00:00 4.2 10 Oeste 18 Oeste 0 -- -- 79
2020-03-16 05:00:00 4.2 11 Oeste 22 Oeste 0 -- -- 80
2020-03-16 04:00:00 4.6 15 Oeste 26 Oeste 0 -- -- 77
2020-03-16 03:00:00 5 9 Sudoeste 17 Oeste 0 -- -- 73
2020-03-16 02:00:00 5.3 8 Sudoeste 24 Oeste 0 -- -- 72
2020-03-16 01:00:00 5.8 12 Oeste 21 Oeste 0 -- -- 70
2020-03-16 00:00:00 6.8 9 Noroeste 28 Noroeste 0 -- -- 69
2020-03-15 23:00:00 8 14 Oeste 39 Oeste 0 -- -- 67
2020-03-15 22:00:00 9.4 17 Noroeste 40 Oeste 0 -- -- 67
2020-03-15 21:00:00 10.8 20 Oeste 41 Oeste 0 -- -- 69
2020-03-15 20:00:00 13.2 23 Oeste 48 Oeste 0 -- -- 63
2020-03-15 19:00:00 15.2 22 Oeste 39 Oeste 0 -- -- 53
2020-03-15 18:00:00 17.3 22 Oeste 39 Oeste 0 -- -- 52
2020-03-15 17:00:00 17.6 23 Oeste 40 Oeste 0 -- -- 61
2020-03-15 16:00:00 18.3 24 Oeste 39 Oeste 0 -- -- 61
2020-03-15 15:00:00 21.2 21 Sudoeste 40 Sudoeste 0 -- -- 54
2020-03-15 14:00:00 21.2 18 Sudoeste 35 Sudoeste 0 -- -- 58
2020-03-15 13:00:00 20.7 13 Sudoeste 23 Sur 0 -- -- 61
2020-03-15 12:00:00 19.6 11 Sur 21 Sudoeste 0 -- -- 66
2020-03-15 11:00:00 17.4 13 Sur 20 Sur 0 -- -- 72
2020-03-15 10:00:00 12.7 3 Nordeste 5 Norte 0 -- -- 87
2020-03-15 09:00:00 8.4 0 Calma 4 Norte 0 -- -- 96
2020-03-15 08:00:00 7.3 0 Calma 3 Sur 0 -- -- 95
2020-03-15 07:00:00 7.7 0 Calma 2 Este 0 -- -- 94
2020-03-15 06:00:00 8.2 0 Calma 0 Calma 0 -- -- 95
2020-03-15 05:00:00 8.7 0 Calma 3 Sur 0 -- -- 93
2020-03-15 04:00:00 9.2 0 Calma 2 Noroeste 0 -- -- 93
2020-03-15 03:00:00 9.7 0 Calma 6 Sur 0 -- -- 93
2020-03-15 02:00:00 9.9 0 Calma 6 Sur 0 -- -- 88
2020-03-15 01:00:00 11 0 Calma 4 Sur 0 -- -- 87
2020-03-15 00:00:00 12.2 2 Sur 8 Sur 0 -- -- 84
2020-03-14 23:00:00 13 4 Sur 8 Sur 0 -- -- 81
2020-03-14 22:00:00 13.5 4 Sur 6 Sur 0 -- -- 79
2020-03-14 21:00:00 14.7 4 Sur 9 Sur 0 -- -- 75
2020-03-14 20:00:00 16.1 6 Sur 9 Sur 0 -- -- 70
2020-03-14 19:00:00 20.8 3 Sudeste 9 Nordeste 0 -- -- 60
2020-03-14 18:00:00 22.6 2 Norte 13 Este 0 -- -- 51
2020-03-14 17:00:00 22.4 6 Nordeste 13 Nordeste 0 -- -- 55
2020-03-14 16:00:00 22.1 8 Este 16 Nordeste 0 -- -- 54
2020-03-14 15:00:00 21.2 6 Nordeste 15 Norte 0 -- -- 56
2020-03-14 14:00:00 20.3 6 Nordeste 18 Este 0 -- -- 60
2020-03-14 13:00:00 19.3 6 Norte 13 Nordeste 0 -- -- 62
2020-03-14 12:00:00 17.3 8 Nordeste 15 Nordeste 0 -- -- 69
2020-03-14 11:00:00 15.7 3 Norte 7 Norte 0 -- -- 74
2020-03-14 10:00:00 13.1 5 Oeste 11 Oeste 0 -- -- 79
2020-03-14 09:00:00 11.3 2 Oeste 6 Sudoeste 0 -- -- 82
2020-03-14 08:00:00 8.9 4 Sudoeste 9 Oeste 0 -- -- 91
2020-03-14 07:00:00 9.3 3 Sudoeste 9 Oeste 0 -- -- 89
2020-03-14 06:00:00 11.3 6 Oeste 14 Oeste 0 -- -- 84
2020-03-14 05:00:00 11.6 7 Oeste 12 Oeste 0 -- -- 84
2020-03-14 04:00:00 11.7 8 Oeste 12 Sudoeste 0 -- -- 86
2020-03-14 03:00:00 11.5 4 Sudoeste 13 Oeste 0 -- -- 86
2020-03-14 02:00:00 12.9 5 Sudoeste 13 Sudoeste 0 -- -- 87
2020-03-14 01:00:00 13.6 4 Oeste 17 Sudoeste 0 -- -- 85
2020-03-14 00:00:00 14.1 4 Oeste 17 Sudoeste 0 -- -- 85
2020-03-13 23:00:00 13.8 2 Oeste 12 Sudoeste 0 -- -- 87
2020-03-13 22:00:00 15.3 9 Sudoeste 15 Oeste 0 -- -- 83
2020-03-13 21:00:00 16.1 14 Sudoeste 23 Sudoeste 0 -- -- 81
2020-03-13 20:00:00 16.5 16 Sudoeste 24 Sudoeste 0 -- -- 80
2020-03-13 19:00:00 17.7 18 Sudoeste 24 Sudoeste 0 -- -- 76
2020-03-13 18:00:00 19.3 13 Sur 19 Sudoeste 0 -- -- 71
2020-03-13 17:00:00 20.9 9 Sudoeste 18 Sur 0 -- -- 64
2020-03-13 16:00:00 21.2 10 Sur 17 Sudoeste 0 -- -- 64
2020-03-13 15:00:00 19.9 4 Oeste 15 Sudoeste 0 -- -- 65
2020-03-13 14:00:00 17.5 12 Sudoeste 22 Sur 0 -- -- 74
2020-03-13 13:00:00 17 16 Sudoeste 23 Sudoeste 0 -- -- 75
2020-03-13 12:00:00 16.5 8 Sudoeste 15 Oeste 0 -- -- 75
2020-03-13 11:00:00 14.8 6 Oeste 11 Oeste 0 -- -- 80
2020-03-13 10:00:00 12.7 7 Oeste 12 Oeste 0 -- -- 84
2020-03-13 09:00:00 10.5 2 Nordeste 9 Sur 0 -- -- 93
2020-03-13 08:00:00 9.9 10 Sudoeste 24 Sudoeste 0 -- -- 88
2020-03-13 07:00:00 9.2 0 Calma 18 Sur 0 -- -- 92
2020-03-13 06:00:00 10.4 5 Sur 13 Sudoeste 0 -- -- 98
2020-03-13 05:00:00 9.5 0 Calma 3 Sur 0 -- -- 93
2020-03-13 04:00:00 10 2 Sur 5 Este 0 -- -- 91
2020-03-13 03:00:00 11.4 0 Calma 13 Sudoeste 0 -- -- 85
2020-03-13 02:00:00 12.7 5 Sur 13 Sudoeste 0 -- -- 87
2020-03-13 01:00:00 13.3 0 Calma 16 Sudoeste 0 -- -- 78
2020-03-13 00:00:00 15.6 0 Calma 13 Sudoeste 0 -- -- 71
2020-03-12 23:00:00 17.6 10 Sudoeste 18 Sudoeste 0 -- -- 66
2020-03-12 22:00:00 18.2 14 Sudoeste 19 Sudoeste 0 -- -- 62
2020-03-12 21:00:00 18.5 13 Sudoeste 20 Sur 0 -- -- 59
2020-03-12 20:00:00 18.9 12 Sur 19 Sur 0 -- -- 57
2020-03-12 19:00:00 20.6 11 Sudoeste 25 Sur 0 -- -- 53
2020-03-12 18:00:00 22.7 17 Sur 24 Sudoeste 0 -- -- 50
2020-03-12 17:00:00 24.2 10 Sudoeste 23 Oeste 0 -- -- 43
2020-03-12 16:00:00 24.9 12 Sudoeste 21 Sudoeste 0 -- -- 45
2020-03-12 15:00:00 25.4 5 Sudoeste 14 Nordeste 0 -- -- 45
2020-03-12 14:00:00 24.2 8 Este 17 Este 0 -- -- 45
2020-03-12 13:00:00 23.5 5 Norte 13 Norte 0 -- -- 53
2020-03-12 12:00:00 22.4 3 Nordeste 8 Norte 0 -- -- 50
2020-03-12 11:00:00 19.8 0 Calma 5 Noroeste 0 -- -- 71
2020-03-12 10:00:00 15.3 0 Calma 4 Noroeste 0 -- -- 84
2020-03-12 09:00:00 11.4 0 Calma 3 Este 0 -- -- 92
2020-03-12 08:00:00 9.2 0 Calma 3 Sudeste 0 -- -- 95
2020-03-12 07:00:00 8.9 0 Calma 4 Sur 0 -- -- 94
2020-03-12 06:00:00 9.3 0 Calma 3 Norte 0 -- -- 93
2020-03-12 05:00:00 10.4 0 Calma 3 Sudeste 0 -- -- 93
2020-03-12 04:00:00 11.4 0 Calma 6 Sur 0 -- -- 88
2020-03-12 03:00:00 12.5 0 Calma 8 Sur 0 -- -- 87
2020-03-12 02:00:00 12.9 0 Calma 5 Sur 0 -- -- 86
2020-03-12 01:00:00 14 2 Sur 5 Sur 0 -- -- 83
2020-03-12 00:00:00 14.3 0 Calma 6 Sur 0 -- -- 85
2020-03-11 23:00:00 14.5 0 Calma 6 Noroeste 0 -- -- 80
2020-03-11 22:00:00 16.7 2 Noroeste 9 Este 0 -- -- 74
2020-03-11 21:00:00 18.3 7 Este 9 Sudeste 0 -- -- 69
2020-03-11 20:00:00 17.6 5 Sudeste 7 Sudeste 0 -- -- 75
2020-03-11 19:00:00 19.8 6 Sudeste 7 Sudeste 0 -- -- 69
2020-03-11 18:00:00 22.4 5 Sudeste 7 Nordeste 0 -- -- 61
2020-03-11 17:00:00 24 4 Nordeste 9 Nordeste 0 -- -- 52
2020-03-11 16:00:00 24.3 5 Nordeste 14 Nordeste 0 -- -- 49
2020-03-11 15:00:00 24.9 5 Nordeste 12 Nordeste 0 -- -- 45
2020-03-11 14:00:00 23.9 5 Norte 15 Nordeste 0 -- -- 49
2020-03-11 13:00:00 22.7 5 Nordeste 9 Nordeste 0 -- -- 55
2020-03-11 12:00:00 21.1 3 Este 6 Este 0 -- -- 58
2020-03-11 11:00:00 17.7 0 Calma 5 Noroeste 0 -- -- 72
2020-03-11 10:00:00 13.1 0 Calma 4 Noroeste 0 -- -- 84
2020-03-11 09:00:00 9.3 0 Calma 3 Noroeste 0 -- -- 92
2020-03-11 08:00:00 6.8 0 Calma 4 Noroeste 0 -- -- 95
2020-03-11 07:00:00 7.4 2 Sudoeste 5 Noroeste 0 -- -- 95
2020-03-11 06:00:00 7.4 0 Calma 2 Noroeste 0 -- -- 93
2020-03-11 05:00:00 7.6 0 Calma -- -- 0 -- -- 92
2020-03-11 04:00:00 8.4 0 Calma 4 Noroeste 0 -- -- 89
2020-03-11 03:00:00 9.6 0 Calma 4 Sur 0 -- -- 88
2020-03-11 02:00:00 9.8 0 Calma 5 Sur 0 -- -- 86
2020-03-11 01:00:00 10.8 0 Calma 6 Sur 0 -- -- 81
2020-03-11 00:00:00 12.7 0 Calma 6 Sur 0 -- -- 75
2020-03-10 23:00:00 13.3 0 Calma 5 Sudoeste 0 -- -- 71
2020-03-10 22:00:00 14.4 2 Nordeste 6 Sur 0 -- -- 66
2020-03-10 21:00:00 15.8 4 Sudoeste 10 Sudoeste 0 -- -- 61
2020-03-10 20:00:00 16.3 8 Sur 10 Sur 0 -- -- 61
2020-03-10 19:00:00 19.5 0 Calma 5 Noroeste 0 -- -- 58
2020-03-10 18:00:00 24.7 5 Este 9 Oeste 0 -- -- 41
2020-03-10 17:00:00 25.2 6 Oeste 12 Oeste 0 -- -- 36
2020-03-10 16:00:00 24.5 2 Oeste 13 Norte 0 -- -- 40
2020-03-10 15:00:00 23.2 5 Norte 15 Oeste 0 -- -- 40
2020-03-10 14:00:00 22.5 8 Sudoeste 15 Oeste 0 -- -- 41
2020-03-10 13:00:00 20 3 Nordeste 10 Norte 0 -- -- 53
2020-03-10 12:00:00 17.6 3 Norte 10 Oeste 0 -- -- 57
2020-03-10 11:00:00 14.8 3 Oeste 7 Noroeste 0 -- -- 57
2020-03-10 10:00:00 12 3 Noroeste 4 Noroeste 0 -- -- 74
2020-03-10 09:00:00 8.8 0 Calma 2 Norte 0 -- -- 79
2020-03-10 08:00:00 5.5 0 Calma 5 Sur 0 -- -- 88
2020-03-10 07:00:00 5.7 0 Calma 7 Sur 0 -- -- 85
2020-03-10 06:00:00 6.8 0 Calma 3 Noroeste 0 -- -- 80
2020-03-10 05:00:00 7.7 0 Calma 3 Oeste 0 -- -- 77
2020-03-10 04:00:00 7.9 0 Calma 5 Sudeste 0 -- -- 76
2020-03-10 03:00:00 8.7 3 Sudeste 5 Sudeste 0 -- -- 71
2020-03-10 02:00:00 8.5 2 Sudoeste 5 Sur 0 -- -- 73
2020-03-10 01:00:00 9.8 3 Sudoeste 7 Sur 0 -- -- 63
2020-03-10 00:00:00 10.4 4 Sur 9 Sur 0 -- -- 59
2020-03-09 23:00:00 12.1 4 Sudoeste 13 Norte 0 -- -- 52
2020-03-09 22:00:00 12.4 3 Sur 10 Sudeste 0 -- -- 50
2020-03-09 21:00:00 13.7 2 Oeste 9 Sudeste 0 -- -- 50
2020-03-09 20:00:00 14.4 4 Noroeste 14 Noroeste 0 -- -- 50
2020-03-09 19:00:00 18.7 6 Noroeste 21 Noroeste 0 -- -- 37
2020-03-09 18:00:00 20.2 11 Noroeste 23 Noroeste 0 -- -- 32
2020-03-09 17:00:00 20.6 12 Noroeste 25 Noroeste 0 -- -- 35
2020-03-09 16:00:00 19.8 12 Noroeste 30 Noroeste 0 -- -- 39
2020-03-09 15:00:00 18.5 11 Norte 23 Noroeste 0 -- -- 42
2020-03-09 14:00:00 17 12 Noroeste 23 Oeste 0 -- -- 48
2020-03-09 13:00:00 15.6 12 Noroeste 19 Noroeste 0 -- -- 53
2020-03-09 12:00:00 14.5 5 Noroeste 16 Oeste 0 -- -- 64
2020-03-09 11:00:00 12.3 9 Noroeste 15 Oeste 0 -- -- 69
2020-03-09 10:00:00 9.7 7 Oeste 15 Oeste 0 -- -- 80
2020-03-09 09:00:00 8.3 8 Sudoeste 13 Oeste 0 -- -- 85
2020-03-09 08:00:00 7.1 5 Sudoeste 14 Sudoeste 0 -- -- 90
2020-03-09 07:00:00 7.4 9 Sudoeste 15 Sudoeste 0 -- -- 93
2020-03-09 06:00:00 6.3 3 Oeste 7 Oeste 0 -- -- 93
2020-03-09 05:00:00 7.5 3 Sudoeste 11 Sudoeste 0 -- -- 91
2020-03-09 04:00:00 8 2 Sudoeste 12 Oeste 0 -- -- 90
2020-03-09 03:00:00 9 6 Sudoeste 14 Oeste 0 -- -- 90
2020-03-09 02:00:00 9.4 8 Sudoeste 17 Sudoeste 0 -- -- 90
2020-03-09 01:00:00 10.3 9 Sudoeste 21 Sudoeste 0 -- -- 88
2020-03-09 00:00:00 10.8 8 Sudoeste 17 Sudoeste 0 -- -- 87
2020-03-08 23:00:00 11.4 7 Oeste 19 Sudoeste 0 -- -- 84
2020-03-08 22:00:00 12.3 10 Sudoeste 17 Sudoeste 0 -- -- 80
2020-03-08 21:00:00 12.8 11 Sudoeste 16 Oeste 0 -- -- 72
2020-03-08 20:00:00 11.4 4 Oeste 11 Oeste 0 -- -- 74
2020-03-08 19:00:00 15.1 4 Noroeste 17 Oeste 0 -- -- 60
2020-03-08 18:00:00 15.2 9 Oeste 16 Noroeste 0 -- -- 59
2020-03-08 17:00:00 14.7 4 Norte 20 Noroeste 0 -- -- 59
2020-03-08 16:00:00 15.1 9 Noroeste 18 Noroeste 0 -- -- 58
2020-03-08 15:00:00 15.2 9 Noroeste 20 Noroeste 0 -- -- 57
2020-03-08 14:00:00 16.4 10 Oeste 17 Oeste 0 -- -- 50
2020-03-08 13:00:00 15.9 6 Oeste 15 Oeste 0 -- -- 61
2020-03-08 12:00:00 14.5 4 Noroeste 8 Noroeste 0 -- -- 65
2020-03-08 11:00:00 12.2 4 Nordeste 7 Norte 0 -- -- 70
2020-03-08 10:00:00 7.5 0 Calma 7 Noroeste 0 -- -- 86
2020-03-08 09:00:00 3.2 0 Calma 5 Noroeste 0 -- -- 92
2020-03-08 08:00:00 1.3 0 Calma 5 Noroeste 0 -- -- 94
2020-03-08 07:00:00 2.2 0 Calma 9 Sur 0 -- -- 92
2020-03-08 06:00:00 2.4 3 Sur 6 Sur 0 -- -- 95
2020-03-08 05:00:00 4 2 Sur 5 Sur 0 -- -- 93
2020-03-08 04:00:00 7.2 6 Sudoeste 12 Sudoeste 0 -- -- 84
2020-03-08 03:00:00 9.4 8 Sudoeste 17 Sudoeste 0 -- -- 77
2020-03-08 02:00:00 6.3 0 Calma 5 Sudoeste 0 -- -- 86
2020-03-08 01:00:00 6.3 0 Calma 5 Sur 0 -- -- 84
2020-03-08 00:00:00 7.4 2 Oeste 14 Sudoeste 0 -- -- 76